Time;durP1;ratioP1;P1;durP2;ratioP2;P2;SDS_P1;SDS_P2;PMS_P1;PMS_P2;Temp;Humidity;BMP_temperature;BMP_pressure;BME280_temperature;BME280_humidity;BME280_pressure;Samples;Min_cycle;Max_cycle;Signal;HPM_P1;HPM_P2
2024/01/05 00:01:34;;;;;;;11.50;2.47;;;7.40;99.90;;;;;;5074733;28;20238;-42
2024/01/05 00:04:00;;;;;;;10.37;2.53;;;7.40;99.90;;;;;;5074565;28;20237;-44
2024/01/05 00:06:29;;;;;;;7.17;1.87;;;7.40;99.90;;;;;;5074647;28;20218;-44
2024/01/05 00:08:55;;;;;;;10.83;2.10;;;7.40;99.90;;;;;;5074609;28;20275;-44
2024/01/05 00:11:21;;;;;;;13.57;2.60;;;7.40;99.90;;;;;;5074369;28;20229;-44
2024/01/05 00:13:48;;;;;;;14.17;2.37;;;7.30;99.90;;;;;;5074418;28;20695;-45
2024/01/05 00:16:20;;;;;;;9.47;1.97;;;7.30;99.90;;;;;;5074510;28;20214;-44
2024/01/05 00:18:46;;;;;;;10.43;2.37;;;7.20;99.90;;;;;;5074042;28;20195;-44
2024/01/05 00:21:23;;;;;;;6.63;2.43;;;7.20;99.90;;;;;;5056950;28;20215;-43
2024/01/05 00:23:50;;;;;;;9.97;2.23;;;7.10;99.90;;;;;;5074305;28;20175;-43
2024/01/05 00:26:19;;;;;;;7.47;2.07;;;7.00;99.90;;;;;;5074244;28;20620;-44
2024/01/05 00:28:47;;;;;;;9.03;2.20;;;7.00;99.90;;;;;;5073419;28;20186;-44
2024/01/05 00:31:15;;;;;;;8.40;1.90;;;6.90;99.90;;;;;;5074147;28;20203;-45
2024/01/05 00:33:41;;;;;;;8.70;2.20;;;6.90;99.90;;;;;;5056027;28;20197;-44
2024/01/05 00:36:10;;;;;;;13.77;2.40;;;6.90;99.90;;;;;;5073898;28;20183;-42
2024/01/05 00:38:36;;;;;;;10.60;2.30;;;6.80;99.90;;;;;;5073907;28;20192;-43
2024/01/05 00:41:05;;;;;;;7.30;1.90;;;6.80;99.90;;;;;;5055968;28;20681;-42
2024/01/05 00:43:32;;;;;;;13.60;2.20;;;6.70;99.90;;;;;;5073687;28;20652;-44
2024/01/05 00:45:58;;;;;;;8.90;2.20;;;6.70;99.90;;;;;;5073695;28;20266;-45
2024/01/05 00:48:24;;;;;;;10.13;2.07;;;6.70;99.90;;;;;;5055758;28;20221;-44
2024/01/05 00:50:50;;;;;;;10.17;2.50;;;6.70;99.90;;;;;;5055589;28;20702;-45
2024/01/05 00:53:15;;;;;;;13.07;2.80;;;6.60;99.90;;;;;;5073594;28;20184;-44
2024/01/05 00:55:41;;;;;;;11.17;2.80;;;6.60;99.90;;;;;;5073579;28;20187;-43
2024/01/05 00:58:10;;;;;;;8.93;2.50;;;6.60;99.90;;;;;;5070501;28;20195;-44
2024/01/05 01:00:35;;;;;;;9.50;2.83;;;6.50;99.90;;;;;;5073597;28;20253;-45
2024/01/05 01:03:02;;;;;;;7.37;2.20;;;6.50;99.90;;;;;;5073459;28;20521;-44
2024/01/05 01:05:28;;;;;;;9.77;2.00;;;6.40;99.90;;;;;;5073441;28;20167;-44
2024/01/05 01:07:54;;;;;;;8.90;1.73;;;6.30;99.90;;;;;;5073637;28;20184;-42
2024/01/05 01:10:19;;;;;;;7.30;1.90;;;6.20;99.90;;;;;;5055827;28;20211;-43
2024/01/05 01:12:45;;;;;;;7.90;1.90;;;6.20;99.90;;;;;;5055860;28;20659;-43
2024/01/05 01:15:10;;;;;;;5.13;1.60;;;6.10;99.90;;;;;;5072474;28;20202;-43
2024/01/05 01:17:36;;;;;;;6.63;1.33;;;6.00;99.90;;;;;;5073590;28;20266;-43
2024/01/05 01:20:03;;;;;;;6.43;1.77;;;6.00;99.90;;;;;;5055116;28;20233;-44
2024/01/05 01:22:28;;;;;;;7.00;1.87;;;5.90;99.90;;;;;;5073269;28;20707;-43
2024/01/05 01:24:54;;;;;;;8.60;1.90;;;5.90;99.90;;;;;;5073686;28;20218;-44
2024/01/05 01:27:19;;;;;;;8.40;2.50;;;5.90;99.90;;;;;;5073267;28;20270;-43
2024/01/05 01:29:45;;;;;;;11.17;2.10;;;5.90;99.90;;;;;;5073053;28;20202;-43
2024/01/05 01:32:11;;;;;;;8.37;1.73;;;5.90;99.90;;;;;;5073191;28;20194;-44
2024/01/05 01:34:40;;;;;;;6.10;1.40;;;6.00;99.90;;;;;;5073208;28;20180;-44
2024/01/05 01:37:05;;;;;;;6.43;1.57;;;6.00;99.90;;;;;;5073095;28;20698;-45
2024/01/05 01:39:32;;;;;;;7.80;1.93;;;6.10;99.90;;;;;;5073284;28;20260;-44
2024/01/05 01:41:59;;;;;;;3.90;1.60;;;6.10;99.90;;;;;;5076036;28;20179;-44
2024/01/05 01:44:25;;;;;;;8.73;1.70;;;6.20;99.90;;;;;;5077161;28;20653;-44
2024/01/05 01:46:55;;;;;;;8.43;1.60;;;6.20;99.90;;;;;;5077228;28;20187;-44
2024/01/05 01:49:21;;;;;;;7.87;1.53;;;6.20;99.90;;;;;;5058553;28;20418;-43
2024/01/05 01:51:47;;;;;;;9.17;1.50;;;6.30;99.90;;;;;;5077269;28;20179;-45
2024/01/05 01:54:13;;;;;;;3.63;1.10;;;6.40;99.90;;;;;;5077154;28;20590;-44
2024/01/05 01:56:39;;;;;;;3.07;1.10;;;6.50;99.90;;;;;;5076874;28;20262;-44
2024/01/05 01:59:06;;;;;;;8.00;1.50;;;6.50;99.90;;;;;;5077422;28;20237;-45
2024/01/05 02:01:31;;;;;;;3.57;1.10;;;6.60;99.90;;;;;;5077239;28;20246;-46
2024/01/05 02:03:58;;;;;;;8.73;1.50;;;6.60;99.90;;;;;;5076832;28;20207;-43
2024/01/05 02:06:23;;;;;;;4.00;1.07;;;6.70;99.90;;;;;;5076951;28;20179;-43
2024/01/05 02:08:50;;;;;;;12.47;1.73;;;6.60;99.90;;;;;;5076588;28;20174;-43
2024/01/05 02:11:16;;;;;;;6.17;1.23;;;6.60;99.90;;;;;;5076720;28;20211;-42
2024/01/05 02:13:42;;;;;;;12.17;2.03;;;6.60;99.90;;;;;;5076329;28;20192;-42
2024/01/05 02:16:14;;;;;;;3.67;1.17;;;6.60;99.90;;;;;;5058955;28;20270;-42
2024/01/05 02:18:40;;;;;;;8.47;1.53;;;6.60;99.90;;;;;;5076452;28;20635;-44
2024/01/05 02:21:09;;;;;;;10.33;1.67;;;6.50;99.90;;;;;;5076239;28;20242;-42
2024/01/05 02:23:37;;;;;;;4.70;1.43;;;6.50;99.90;;;;;;5076677;28;20175;-42
2024/01/05 02:26:03;;;;;;;5.80;1.37;;;6.50;99.90;;;;;;5076336;28;20237;-43
2024/01/05 02:28:29;;;;;;;4.40;1.17;;;6.40;99.90;;;;;;5058780;28;20191;-41
2024/01/05 02:30:56;;;;;;;4.67;1.30;;;6.40;99.90;;;;;;5058395;28;20206;-44
2024/01/05 02:33:23;;;;;;;7.50;1.60;;;6.30;99.90;;;;;;5076369;28;20197;-44
2024/01/05 02:35:49;;;;;;;8.43;1.47;;;6.30;99.90;;;;;;5058600;28;20549;-42
2024/01/05 02:38:15;;;;;;;2.40;1.03;;;6.30;99.90;;;;;;5058679;28;20190;-44
2024/01/05 02:40:41;;;;;;;6.40;1.70;;;6.30;99.90;;;;;;5077591;28;20250;-44
2024/01/05 02:43:07;;;;;;;5.20;1.57;;;6.20;99.90;;;;;;5058633;28;20185;-43
2024/01/05 02:45:33;;;;;;;5.73;1.57;;;6.20;99.90;;;;;;5076486;28;20623;-43
2024/01/05 02:47:58;;;;;;;4.80;1.67;;;6.20;99.90;;;;;;5076027;28;20245;-43
2024/01/05 02:50:24;;;;;;;6.33;1.83;;;6.20;99.90;;;;;;5058076;28;20227;-44
2024/01/05 02:52:56;;;;;;;6.80;1.67;;;6.10;99.90;;;;;;5057770;28;20610;-45
2024/01/05 02:55:25;;;;;;;3.47;1.37;;;6.10;99.90;;;;;;5075826;28;20266;-44
2024/01/05 02:57:51;;;;;;;7.40;1.83;;;6.00;99.90;;;;;;5075994;28;20370;-44
2024/01/05 03:00:17;;;;;;;12.63;1.80;;;6.00;99.90;;;;;;5058068;28;20306;-43
2024/01/05 03:02:43;;;;;;;11.77;1.80;;;5.90;99.90;;;;;;5041214;28;20214;-45
2024/01/05 03:05:09;;;;;;;7.17;1.60;;;5.90;99.90;;;;;;5075628;28;20592;-44
2024/01/05 03:07:34;;;;;;;6.47;1.60;;;5.90;99.90;;;;;;5057841;28;20178;-43
2024/01/05 03:10:00;;;;;;;8.23;2.07;;;5.80;99.90;;;;;;5057573;28;20219;-43
2024/01/05 03:12:26;;;;;;;7.93;1.40;;;5.90;99.90;;;;;;5075604;28;20217;-44
2024/01/05 03:14:52;;;;;;;8.37;1.93;;;5.90;99.90;;;;;;5075812;28;20554;-43
2024/01/05 03:17:19;;;;;;;8.83;1.80;;;5.90;99.90;;;;;;5075703;28;20267;-44
2024/01/05 03:19:44;;;;;;;7.83;1.60;;;5.90;99.90;;;;;;5075215;28;20214;-44
2024/01/05 03:22:10;;;;;;;6.47;1.47;;;5.80;99.90;;;;;;5075586;28;20623;-44
2024/01/05 03:24:36;;;;;;;9.60;1.63;;;5.90;99.90;;;;;;5075243;28;20266;-44
2024/01/05 03:27:01;;;;;;;6.33;1.40;;;5.90;99.90;;;;;;5075535;28;20542;-44
2024/01/05 03:29:29;;;;;;;7.90;1.80;;;5.80;99.90;;;;;;5075172;28;20183;-45
2024/01/05 03:31:54;;;;;;;13.77;2.10;;;5.80;99.90;;;;;;5075623;28;20191;-45
2024/01/05 03:34:20;;;;;;;8.07;1.53;;;5.80;99.90;;;;;;5074904;28;20178;-44
2024/01/05 03:36:45;;;;;;;5.70;1.67;;;5.90;99.90;;;;;;5075340;28;20219;-44
2024/01/05 03:39:11;;;;;;;15.20;2.03;;;5.90;99.90;;;;;;5074931;28;20189;-43
2024/01/05 03:41:37;;;;;;;7.80;1.47;;;6.00;99.90;;;;;;5075029;28;20244;-44
2024/01/05 03:44:04;;;;;;;10.37;1.47;;;6.00;99.90;;;;;;5074859;28;20242;-43
2024/01/05 03:46:29;;;;;;;8.57;1.97;;;6.10;99.90;;;;;;5075185;28;20189;-44
2024/01/05 03:48:55;;;;;;;5.07;1.60;;;6.10;99.90;;;;;;5074813;28;20170;-44
2024/01/05 03:51:21;;;;;;;5.30;1.50;;;6.20;99.90;;;;;;5056673;28;20748;-44
2024/01/05 03:53:46;;;;;;;5.87;1.63;;;6.20;99.90;;;;;;5074809;28;20183;-43
2024/01/05 03:56:12;;;;;;;9.80;2.30;;;6.30;99.90;;;;;;5057150;28;20215;-43
2024/01/05 03:58:37;;;;;;;9.80;1.40;;;6.20;99.90;;;;;;5074533;28;20191;-43
2024/01/05 04:01:08;;;;;;;4.43;1.53;;;6.30;99.90;;;;;;5074353;28;20264;-43
2024/01/05 04:03:33;;;;;;;9.27;1.83;;;6.30;99.90;;;;;;5073911;28;20286;-43
2024/01/05 04:05:59;;;;;;;5.93;1.97;;;6.30;99.90;;;;;;5074490;28;20663;-44
2024/01/05 04:08:27;;;;;;;8.83;1.43;;;6.30;99.90;;;;;;5074354;28;20643;-45
2024/01/05 04:10:54;;;;;;;11.53;1.70;;;6.30;99.90;;;;;;5074492;28;20201;-46
2024/01/05 04:13:20;;;;;;;11.30;1.60;;;6.30;99.90;;;;;;5056575;28;20229;-44
2024/01/05 04:15:46;;;;;;;8.63;1.90;;;6.30;99.90;;;;;;5074190;28;20217;-43
2024/01/05 04:18:11;;;;;;;7.53;1.57;;;6.30;99.90;;;;;;5056690;28;20190;-44
2024/01/05 04:20:40;;;;;;;7.37;1.97;;;6.40;99.90;;;;;;5073908;28;20686;-44
2024/01/05 04:23:06;;;;;;;8.70;1.80;;;6.40;99.90;;;;;;5074325;28;20261;-44
2024/01/05 04:25:31;;;;;;;4.40;1.73;;;6.40;99.90;;;;;;5074117;28;20612;-44
2024/01/05 04:28:01;;;;;;;3.63;1.30;;;6.40;99.90;;;;;;5074016;28;20211;-45
2024/01/05 04:30:28;;;;;;;5.50;1.47;;;6.40;99.90;;;;;;5074111;28;20247;-44
2024/01/05 04:32:53;;;;;;;12.23;1.67;;;6.50;99.90;;;;;;5074008;28;20190;-44
2024/01/05 04:35:19;;;;;;;9.73;2.17;;;6.50;99.90;;;;;;5073880;28;20187;-44
2024/01/05 04:37:44;;;;;;;6.73;1.33;;;6.50;99.90;;;;;;5074066;28;20316;-43
2024/01/05 04:40:11;;;;;;;3.27;1.30;;;6.60;99.90;;;;;;5074017;28;20256;-43
2024/01/05 04:42:37;;;;;;;8.13;1.37;;;6.50;99.90;;;;;;5074130;28;20183;-44
2024/01/05 04:45:03;;;;;;;6.23;1.53;;;6.50;99.90;;;;;;5056168;28;20197;-44
2024/01/05 04:47:29;;;;;;;6.33;1.40;;;6.50;99.90;;;;;;5074043;28;20179;-44
2024/01/05 04:49:54;;;;;;;14.37;1.73;;;6.50;99.90;;;;;;5073614;28;20215;-44
2024/01/05 04:52:20;;;;;;;6.70;1.57;;;6.60;99.90;;;;;;5073649;28;20171;-43
2024/01/05 04:54:45;;;;;;;5.90;1.53;;;6.60;99.90;;;;;;5073558;28;20178;-43
2024/01/05 04:57:11;;;;;;;5.37;1.40;;;6.60;99.90;;;;;;5073856;28;20180;-43
2024/01/05 04:59:38;;;;;;;9.43;1.80;;;6.60;99.90;;;;;;5073670;28;20187;-44
2024/01/05 05:02:05;;;;;;;7.50;1.67;;;6.60;99.90;;;;;;5073929;28;20186;-44
2024/01/05 05:04:31;;;;;;;7.60;1.40;;;6.60;99.90;;;;;;5073489;28;20180;-44
2024/01/05 05:06:56;;;;;;;6.83;1.40;;;6.60;99.90;;;;;;5073499;28;20187;-43
2024/01/05 05:09:23;;;;;;;6.30;1.63;;;6.60;99.90;;;;;;5055378;28;20179;-47
2024/01/05 05:11:49;;;;;;;10.07;1.23;;;6.60;99.90;;;;;;5073402;28;20266;-43
2024/01/05 05:14:15;;;;;;;6.43;1.10;;;6.60;99.90;;;;;;5073407;28;20313;-43
2024/01/05 05:16:46;;;;;;;12.70;1.80;;;6.50;99.90;;;;;;5073392;28;20179;-44
2024/01/05 05:19:13;;;;;;;4.80;1.33;;;6.60;99.90;;;;;;5073336;28;20532;-44
2024/01/05 05:21:38;;;;;;;6.73;1.13;;;6.50;99.90;;;;;;5073172;28;20200;-43
2024/01/05 05:24:04;;;;;;;3.43;1.00;;;6.50;99.90;;;;;;5073267;28;20183;-43
2024/01/05 05:26:31;;;;;;;3.77;1.00;;;6.60;99.90;;;;;;5074875;28;20191;-42
2024/01/05 05:28:56;;;;;;;4.23;1.03;;;6.60;99.90;;;;;;5075897;28;20616;-46
2024/01/05 05:31:22;;;;;;;6.10;1.20;;;6.60;99.90;;;;;;5073348;28;20234;-46
2024/01/05 05:33:48;;;;;;;5.13;1.50;;;6.50;99.90;;;;;;5055566;28;20188;-48
2024/01/05 05:36:16;;;;;;;4.90;1.40;;;6.60;99.90;;;;;;5055286;28;20237;-47
2024/01/05 05:38:45;;;;;;;6.23;1.03;;;6.50;99.90;;;;;;5073336;28;20219;-46
2024/01/05 05:41:13;;;;;;;4.90;1.40;;;6.50;99.90;;;;;;5055034;28;20233;-47
2024/01/05 05:43:39;;;;;;;5.87;1.13;;;6.50;99.90;;;;;;5055252;28;20187;-47
2024/01/05 05:46:06;;;;;;;4.03;1.03;;;6.50;99.90;;;;;;5073148;28;20263;-47
2024/01/05 05:48:33;;;;;;;5.17;1.30;;;6.50;99.90;;;;;;5073332;28;20233;-46
2024/01/05 05:50:59;;;;;;;3.43;0.80;;;6.50;99.90;;;;;;5055260;28;20230;-46
2024/01/05 05:53:37;;;;;;;3.00;0.93;;;6.50;99.90;;;;;;5073319;28;20192;-48
2024/01/05 05:56:05;;;;;;;3.30;1.00;;;6.40;99.90;;;;;;5073188;28;20175;-47
2024/01/05 05:58:30;;;;;;;2.00;0.90;;;6.40;99.90;;;;;;5073280;28;20215;-47
2024/01/05 06:00:56;;;;;;;5.33;1.10;;;6.30;99.90;;;;;;5072803;28;20239;-47
2024/01/05 06:03:27;;;;;;;6.50;1.30;;;6.30;99.90;;;;;;5072806;28;20172;-47
2024/01/05 06:05:55;;;;;;;3.73;1.10;;;6.20;99.90;;;;;;5073187;28;20159;-47
2024/01/05 06:08:20;;;;;;;7.27;1.50;;;6.30;99.90;;;;;;5073387;28;20305;-47
2024/01/05 06:10:46;;;;;;;3.77;0.87;;;6.20;99.90;;;;;;5072724;28;20241;-48
2024/01/05 06:13:12;;;;;;;1.70;0.83;;;6.20;99.90;;;;;;5054803;28;20191;-46
2024/01/05 06:15:38;;;;;;;5.07;0.87;;;6.20;99.90;;;;;;5073022;28;20192;-48
2024/01/05 06:18:04;;;;;;;1.77;0.90;;;6.20;99.90;;;;;;5072992;28;20593;-47
2024/01/05 06:20:32;;;;;;;8.90;1.00;;;6.20;99.90;;;;;;5054928;28;20227;-48
2024/01/05 06:22:58;;;;;;;2.40;0.83;;;6.30;99.90;;;;;;5055141;28;20247;-47
2024/01/05 06:25:27;;;;;;;2.73;0.67;;;6.30;99.90;;;;;;5073327;28;20537;-47
2024/01/05 06:27:56;;;;;;;2.77;1.17;;;6.40;99.90;;;;;;5074999;28;20553;-48
2024/01/05 06:30:21;;;;;;;1.50;0.80;;;6.50;99.90;;;;;;5076441;28;20204;-46
2024/01/05 06:32:47;;;;;;;3.47;0.50;;;6.60;99.90;;;;;;5076680;28;20175;-47
2024/01/05 06:35:16;;;;;;;7.20;1.00;;;6.60;99.90;;;;;;5058237;28;20244;-46
2024/01/05 06:37:43;;;;;;;5.83;1.30;;;6.70;99.90;;;;;;5058368;28;20179;-48
2024/01/05 06:40:09;;;;;;;4.70;0.70;;;6.70;99.90;;;;;;5075902;28;20724;-46
2024/01/05 06:42:34;;;;;;;2.37;0.93;;;6.70;99.90;;;;;;5076281;28;20324;-47
2024/01/05 06:45:03;;;;;;;3.40;1.10;;;7.70;99.90;;;;;;5076232;28;20698;-46
2024/01/05 06:47:28;;;;;;;4.87;1.10;;;6.90;99.90;;;;;;5075969;28;20189;-47
2024/01/05 06:49:54;;;;;;;9.10;1.03;;;7.00;99.90;;;;;;5075689;28;20737;-46
2024/01/05 06:52:22;;;;;;;1.97;0.50;;;7.00;99.90;;;;;;5076180;28;20203;-47
2024/01/05 06:54:48;;;;;;;2.30;0.73;;;7.00;99.90;;;;;;5058732;28;20726;-47
2024/01/05 06:57:17;;;;;;;5.53;0.87;;;7.00;99.90;;;;;;5075782;28;20314;-47
2024/01/05 06:59:42;;;;;;;3.67;0.93;;;7.00;99.90;;;;;;5075828;28;20260;-47
2024/01/05 07:02:08;;;;;;;1.10;0.57;;;6.90;99.90;;;;;;5075904;28;20266;-47
2024/01/05 07:04:33;;;;;;;4.70;0.70;;;6.90;99.90;;;;;;5076458;28;20187;-47
2024/01/05 07:07:02;;;;;;;1.23;0.70;;;7.00;99.90;;;;;;5076168;28;20194;-48
2024/01/05 07:09:28;;;;;;;1.50;0.60;;;7.00;99.90;;;;;;5075505;28;20198;-46
2024/01/05 07:11:53;;;;;;;2.47;0.80;;;7.00;99.90;;;;;;5057629;28;20187;-46
2024/01/05 07:14:19;;;;;;;1.80;0.70;;;7.00;99.90;;;;;;5075435;28;20358;-46
2024/01/05 07:16:45;;;;;;;1.23;0.40;;;7.10;99.90;;;;;;5075423;28;20258;-46
2024/01/05 07:19:20;;;;;;;2.83;0.70;;;7.10;99.90;;;;;;5075617;28;20187;-46
2024/01/05 07:21:49;;;;;;;1.60;0.70;;;7.10;99.90;;;;;;5075454;28;20273;-47
2024/01/05 07:24:15;;;;;;;1.63;0.80;;;7.10;99.90;;;;;;5075256;28;20232;-47
2024/01/05 07:26:41;;;;;;;5.47;0.83;;;7.10;99.90;;;;;;5075436;28;20187;-48
2024/01/05 07:29:07;;;;;;;1.60;0.70;;;7.10;99.90;;;;;;5075497;28;20195;-47
2024/01/05 07:31:32;;;;;;;1.23;0.50;;;7.10;99.90;;;;;;5075021;28;20234;-47
2024/01/05 07:33:58;;;;;;;2.80;0.93;;;7.10;99.90;;;;;;5075068;28;20187;-47
2024/01/05 07:36:24;;;;;;;5.17;0.90;;;7.10;99.90;;;;;;5057493;28;20241;-48
2024/01/05 07:38:49;;;;;;;4.33;0.60;;;7.10;99.90;;;;;;5073933;28;20187;-48
2024/01/05 07:41:18;;;;;;;2.57;0.57;;;7.10;99.90;;;;;;5074768;28;20687;-47
2024/01/05 07:43:44;;;;;;;2.13;0.50;;;7.20;99.90;;;;;;5074887;28;20228;-47
2024/01/05 07:46:13;;;;;;;4.20;1.20;;;7.20;99.90;;;;;;5074846;28;20639;-47
2024/01/05 07:48:41;;;;;;;1.07;0.70;;;7.20;99.90;;;;;;5057188;28;20187;-47
2024/01/05 07:51:11;;;;;;;4.13;0.63;;;7.30;99.90;;;;;;5074634;28;20364;-46
2024/01/05 07:53:36;;;;;;;1.70;0.70;;;7.20;99.90;;;;;;5057374;28;20196;-46
2024/01/05 07:56:03;;;;;;;0.63;0.50;;;7.20;99.90;;;;;;5074595;28;20179;-49
2024/01/05 07:58:29;;;;;;;1.27;0.60;;;7.20;99.90;;;;;;5040495;28;20550;-48
2024/01/05 08:00:55;;;;;;;0.80;0.50;;;7.20;99.90;;;;;;5074840;28;20203;-48
2024/01/05 08:03:23;;;;;;;2.50;0.50;;;7.30;99.90;;;;;;5074067;28;20196;-48
2024/01/05 08:05:49;;;;;;;0.50;0.50;;;7.30;99.90;;;;;;5040011;28;20210;-48
2024/01/05 08:08:15;;;;;;;1.47;0.50;;;7.30;99.90;;;;;;5057150;28;20252;-48
2024/01/05 08:10:40;;;;;;;0.73;0.30;;;7.40;99.90;;;;;;5074256;28;20214;-48
2024/01/05 08:13:06;;;;;;;1.07;0.53;;;7.50;99.90;;;;;;5074839;28;20187;-47
2024/01/05 08:15:33;;;;;;;0.73;0.47;;;7.50;99.90;;;;;;5074185;28;20205;-48
2024/01/05 08:17:59;;;;;;;0.50;0.40;;;7.50;99.90;;;;;;5074565;28;20207;-48
2024/01/05 08:20:25;;;;;;;0.47;0.37;;;7.50;99.90;;;;;;5056560;28;20242;-47
2024/01/05 08:22:51;;;;;;;0.70;0.40;;;7.60;99.90;;;;;;5056387;28;20226;-47
2024/01/05 08:25:19;;;;;;;0.40;0.40;;;7.60;99.90;;;;;;5056387;28;20187;-46
2024/01/05 08:27:45;;;;;;;1.37;0.37;;;7.70;99.90;;;;;;5074056;28;20664;-48
2024/01/05 08:30:13;;;;;;;0.60;0.40;;;7.70;99.90;;;;;;5073836;28;20238;-48
2024/01/05 08:32:41;;;;;;;0.60;0.30;;;7.70;99.90;;;;;;5074256;28;20168;-48
2024/01/05 08:35:07;;;;;;;0.30;0.27;;;7.70;99.90;;;;;;5074140;28;20179;-47
2024/01/05 08:37:34;;;;;;;0.77;0.53;;;7.70;99.90;;;;;;5056519;28;20183;-48
2024/01/05 08:40:01;;;;;;;0.30;0.27;;;7.70;99.90;;;;;;5073976;28;20206;-47
2024/01/05 08:42:27;;;;;;;1.13;0.40;;;7.70;99.90;;;;;;5073985;28;20183;-48
2024/01/05 08:44:52;;;;;;;0.50;0.30;;;7.70;99.90;;;;;;5074097;28;20176;-46
2024/01/05 08:47:20;;;;;;;1.70;0.43;;;7.70;99.90;;;;;;5074357;28;20256;-48
2024/01/05 08:49:47;;;;;;;0.33;0.30;;;7.70;99.90;;;;;;5055696;28;20219;-46
2024/01/05 08:52:13;;;;;;;0.43;0.30;;;7.70;99.90;;;;;;5073614;28;20179;-48
2024/01/05 08:54:40;;;;;;;1.53;0.50;;;7.70;99.90;;;;;;5073640;28;20245;-46
2024/01/05 08:57:11;;;;;;;0.67;0.50;;;7.80;99.90;;;;;;5073555;28;20172;-48
2024/01/05 08:59:38;;;;;;;0.47;0.37;;;7.80;99.90;;;;;;5073425;28;20172;-46
2024/01/05 09:02:05;;;;;;;0.97;0.40;;;7.80;99.90;;;;;;5073655;28;20552;-47
2024/01/05 09:04:31;;;;;;;0.63;0.30;;;7.80;99.90;;;;;;5073760;28;20171;-47
2024/01/05 09:07:00;;;;;;;0.83;0.43;;;7.80;99.90;;;;;;5073688;28;20187;-46
2024/01/05 09:09:34;;;;;;;0.83;0.53;;;7.80;99.90;;;;;;5073403;28;20175;-48
2024/01/05 09:12:02;;;;;;;1.07;0.40;;;7.80;99.90;;;;;;5073537;28;20266;-46
2024/01/05 09:14:31;;;;;;;1.37;0.60;;;7.90;99.90;;;;;;5072592;28;20675;-47
2024/01/05 09:16:58;;;;;;;1.47;0.50;;;7.80;99.90;;;;;;5073244;28;20172;-47
2024/01/05 09:19:25;;;;;;;1.50;0.43;;;7.90;99.90;;;;;;5073499;28;20237;-49
2024/01/05 09:21:50;;;;;;;3.13;0.60;;;7.90;99.90;;;;;;5073181;28;20199;-46
2024/01/05 09:24:29;;;;;;;1.53;0.43;;;7.90;99.90;;;;;;5073531;28;20698;-48
2024/01/05 09:26:57;;;;;;;0.60;0.33;;;7.90;99.90;;;;;;5073487;28;20167;-48
2024/01/05 09:29:23;;;;;;;0.67;0.40;;;7.90;99.90;;;;;;5073379;28;20175;-47
2024/01/05 09:31:51;;;;;;;1.13;0.50;;;7.90;99.90;;;;;;5073150;28;20266;-47
2024/01/05 09:34:17;;;;;;;0.93;0.50;;;7.90;99.90;;;;;;5073111;28;20179;-47
2024/01/05 09:36:42;;;;;;;1.20;0.50;;;7.90;99.90;;;;;;5055144;28;20210;-47
2024/01/05 09:39:11;;;;;;;0.80;0.40;;;7.90;99.90;;;;;;5073196;28;20642;-47
2024/01/05 09:41:36;;;;;;;0.33;0.30;;;7.90;99.90;;;;;;5055499;28;20209;-48
2024/01/05 09:44:03;;;;;;;0.40;0.33;;;8.00;99.90;;;;;;5073349;28;20603;-46
2024/01/05 09:46:28;;;;;;;1.67;0.50;;;7.90;99.90;;;;;;5073310;28;20542;-47
2024/01/05 09:48:58;;;;;;;0.77;0.43;;;8.00;99.90;;;;;;5072778;28;20191;-47
2024/01/05 09:51:28;;;;;;;1.33;0.50;;;8.00;99.90;;;;;;5072801;28;20215;-47
2024/01/05 09:53:54;;;;;;;0.60;0.40;;;8.00;99.90;;;;;;5073264;28;20742;-47
2024/01/05 09:56:21;;;;;;;5.63;0.60;;;8.00;99.90;;;;;;5072667;28;20278;-46
2024/01/05 09:58:50;;;;;;;1.57;0.50;;;8.00;99.90;;;;;;5072894;28;20694;-48
2024/01/05 10:01:23;;;;;;;1.20;0.40;;;8.00;99.90;;;;;;5072712;28;20221;-47
2024/01/05 10:03:54;;;;;;;2.47;0.57;;;8.00;99.90;;;;;;5074564;28;20558;-47
2024/01/05 10:06:20;;;;;;;0.40;0.40;;;8.00;99.90;;;;;;5077186;28;20170;-48
2024/01/05 10:08:45;;;;;;;1.93;0.60;;;8.00;99.90;;;;;;5076800;28;20184;-46
2024/01/05 10:11:12;;;;;;;2.83;0.70;;;8.00;99.90;;;;;;5076841;28;20199;-47
2024/01/05 10:13:52;;;;;;;3.03;0.50;;;8.00;99.90;;;;;;5076575;28;20179;-48
2024/01/05 10:16:20;;;;;;;3.27;0.60;;;8.00;99.90;;;;;;5076808;28;20174;-48
2024/01/05 10:18:49;;;;;;;3.30;0.70;;;8.00;99.90;;;;;;5076802;28;20185;-48
2024/01/05 10:21:14;;;;;;;1.20;0.63;;;8.00;99.90;;;;;;5076513;28;20253;-49
2024/01/05 10:23:43;;;;;;;6.07;1.00;;;8.10;99.90;;;;;;5076686;28;20567;-48
2024/01/05 10:26:17;;;;;;;1.77;0.40;;;8.10;99.90;;;;;;5076556;28;20175;-48
2024/01/05 10:28:42;;;;;;;0.30;0.30;;;8.10;99.90;;;;;;5058753;28;20175;-47
2024/01/05 10:31:15;;;;;;;1.17;0.30;;;8.10;99.90;;;;;;5058404;28;20295;-49
2024/01/05 10:33:55;;;;;;;0.80;0.57;;;8.10;99.90;;;;;;5068098;28;20256;-46
2024/01/05 10:36:26;;;;;;;1.53;0.50;;;8.10;99.90;;;;;;5058347;28;20180;-47
2024/01/05 10:38:52;;;;;;;1.63;0.50;;;8.10;99.90;;;;;;5076086;28;20262;-46
2024/01/05 10:41:21;;;;;;;0.67;0.57;;;8.10;99.90;;;;;;5076032;28;20207;-49
2024/01/05 10:43:47;;;;;;;2.33;0.70;;;8.20;99.90;;;;;;5076291;28;20262;-47
2024/01/05 10:46:15;;;;;;;1.20;0.50;;;8.20;99.90;;;;;;5076228;28;20608;-48
2024/01/05 10:48:42;;;;;;;5.23;0.60;;;8.20;99.90;;;;;;5058521;28;20171;-47
2024/01/05 10:51:13;;;;;;;4.83;0.93;;;8.20;99.90;;;;;;5075792;28;20211;-47
2024/01/05 10:53:38;;;;;;;1.83;0.80;;;8.30;99.90;;;;;;5075922;28;20175;-47
2024/01/05 10:56:06;;;;;;;1.53;0.50;;;8.30;99.90;;;;;;5076131;28;20504;-49
2024/01/05 10:58:32;;;;;;;1.90;0.40;;;8.30;99.90;;;;;;5075790;28;20259;-47
2024/01/05 11:01:03;;;;;;;1.97;0.53;;;8.40;99.90;;;;;;5058157;28;20248;-47
2024/01/05 11:03:44;;;;;;;1.60;0.67;;;8.40;99.90;;;;;;5076024;28;20326;-47
2024/01/05 11:06:12;;;;;;;1.60;0.60;;;8.40;99.90;;;;;;5075751;28;20156;-46
2024/01/05 11:08:53;;;;;;;2.00;0.50;;;8.40;99.90;;;;;;5075599;28;20176;-46
2024/01/05 11:11:45;;;;;;;2.23;0.63;;;8.50;99.90;;;;;;5075575;28;20195;-47
2024/01/05 11:14:28;;;;;;;1.37;0.60;;;8.50;99.90;;;;;;5075647;28;20166;-47
2024/01/05 11:17:24;;;;;;;2.50;0.60;;;8.60;99.90;;;;;;5075667;28;20171;-46
2024/01/05 11:20:25;;;;;;;3.40;0.70;;;8.60;99.90;;;;;;5075284;28;20663;-47
2024/01/05 11:22:51;;;;;;;3.40;0.63;;;8.60;99.90;;;;;;5075231;28;20624;-48
2024/01/05 11:25:21;;;;;;;0.40;0.40;;;8.70;99.90;;;;;;5057591;28;20180;-48
2024/01/05 11:27:46;;;;;;;1.23;0.53;;;8.70;99.90;;;;;;5075501;28;20177;-48
2024/01/05 11:30:13;;;;;;;1.90;0.80;;;8.70;99.90;;;;;;5075344;28;20561;-48
2024/01/05 11:32:46;;;;;;;3.10;1.40;;;8.60;99.90;;;;;;5075412;28;20168;-47
2024/01/05 11:35:19;;;;;;;1.27;0.60;;;8.70;99.90;;;;;;5075128;28;20537;-46
2024/01/05 11:37:48;;;;;;;1.57;0.70;;;8.60;99.90;;;;;;5075293;28;20237;-48
2024/01/05 11:40:35;;;;;;;0.80;0.67;;;8.60;99.90;;;;;;5074766;28;20671;-47
2024/01/05 11:43:30;;;;;;;0.90;0.37;;;8.50;99.90;;;;;;5057541;28;20510;-48
2024/01/05 11:45:55;;;;;;;0.70;0.50;;;8.50;99.90;;;;;;5074760;28;20558;-47
2024/01/05 11:48:33;;;;;;;2.33;0.57;;;8.50;99.90;;;;;;5056838;28;20168;-46
2024/01/05 11:51:02;;;;;;;1.73;0.67;;;8.40;99.90;;;;;;5074622;28;20631;-47
2024/01/05 11:53:29;;;;;;;0.43;0.37;;;8.40;99.90;;;;;;5075019;28;20181;-47
2024/01/05 11:56:03;;;;;;;5.40;0.73;;;8.30;99.90;;;;;;5074730;28;20167;-47
2024/01/05 11:58:35;;;;;;;6.77;1.17;;;8.40;99.90;;;;;;5074886;28;20252;-46
2024/01/05 12:01:02;;;;;;;1.50;0.50;;;8.40;99.90;;;;;;5057612;28;20201;-48
2024/01/05 12:03:30;;;;;;;4.87;0.87;;;8.40;99.90;;;;;;5074720;28;20179;-46
2024/01/05 12:06:00;;;;;;;5.97;0.80;;;8.50;99.90;;;;;;5074732;28;20549;-47
2024/01/05 12:08:26;;;;;;;1.90;0.83;;;8.50;99.90;;;;;;5074967;28;20152;-47
2024/01/05 12:10:56;;;;;;;7.87;1.43;;;8.50;99.90;;;;;;5056457;28;20221;-48
2024/01/05 12:13:26;;;;;;;1.60;0.70;;;8.50;99.90;;;;;;5056993;28;20585;-47
2024/01/05 12:16:02;;;;;;;3.03;0.80;;;8.50;99.90;;;;;;5056344;28;20189;-47
2024/01/05 12:18:32;;;;;;;5.10;0.70;;;8.50;99.90;;;;;;5073848;28;20198;-49
2024/01/05 12:21:02;;;;;;;1.80;0.70;;;8.50;99.90;;;;;;5056637;28;20227;-47
2024/01/05 12:23:30;;;;;;;3.00;0.90;;;8.40;99.90;;;;;;5074005;28;20175;-49
2024/01/05 12:26:03;;;;;;;2.50;0.60;;;8.40;99.90;;;;;;5073750;28;20200;-49
2024/01/05 12:28:36;;;;;;;0.47;0.30;;;8.40;99.90;;;;;;5074145;28;20173;-48
2024/01/05 12:31:04;;;;;;;3.13;1.00;;;8.40;99.90;;;;;;5057679;28;20200;-47
2024/01/05 12:33:35;;;;;;;2.37;0.40;;;8.40;99.90;;;;;;5074164;28;20211;-48
2024/01/05 12:36:01;;;;;;;5.17;1.03;;;8.30;99.90;;;;;;5073909;28;20174;-47
2024/01/05 12:38:31;;;;;;;8.37;1.03;;;8.30;99.90;;;;;;5056413;28;20629;-46
2024/01/05 12:41:14;;;;;;;1.40;0.50;;;8.30;99.90;;;;;;5039132;28;20233;-48
2024/01/05 12:43:50;;;;;;;4.93;1.30;;;8.20;99.90;;;;;;5073721;28;20706;-47
2024/01/05 12:46:20;;;;;;;4.07;1.30;;;8.20;99.90;;;;;;5073774;28;20175;-46
2024/01/05 12:48:45;;;;;;;8.43;1.07;;;8.20;99.90;;;;;;5055802;28;20654;-47
2024/01/05 12:51:19;;;;;;;5.97;1.00;;;8.20;99.90;;;;;;5073483;28;20226;-47
2024/01/05 12:53:49;;;;;;;2.30;0.90;;;8.20;99.90;;;;;;5057109;28;20175;-47
2024/01/05 12:56:18;;;;;;;2.37;1.10;;;8.10;99.90;;;;;;5056526;28;20252;-47
2024/01/05 12:58:47;;;;;;;4.37;1.30;;;8.10;99.90;;;;;;5056335;28;20191;-49